Tiempo atmosférico en la estación meteorológica de Jávea/ Xàbia, Alacant/Alicante (15 m.)



Fecha
DESCASC
Temp. máxima en grados centígrados (hora)
DESCASC
Temp. mínima en grados centígrados (hora)
DESCASC
Temp. media en grados centígrados
DESCASC
Racha de viento máxima en m/sg (hora)
DESCASC
Velocidad máxima media en intervalos de 10 minutos(hora)
DESCASC
Precipitaciones diarias en mm
DESCASC
Precipitaciones de 00:00 a 06:00 en mm
DESCASC
Precipitaciones de 06:00 a 12:00 en mm
DESCASC
Precipitaciones de 12:00 a 18:00 en mm
DESCASC
Precipitaciones de 18:00 a 24:00 en mm
DESCASC
04-11-2020 18.8 (00:10) 14.3 (00:00) 16.5 12.22 (12:30) 6.39 (12:30) -- 1 0 9.2 --
10-11-2020 22.3 (14:00) 12.2 (00:00) 17.2 7.5 (11:30) 5 (11:50) 0 0 0 0 0
24-11-2020 19.4 (13:50) 5.5 (00:00) 12.4 10.56 (12:50) 5.28 (15:00) 0 0 0 0 0
23-11-2020 19 (12:40) 6.5 (00:00) 12.8 5.28 (09:10) 3.06 (01:50) 0 0 0 0 0
22-11-2020 18.7 (13:10) 7.1 (00:00) 12.9 6.94 (10:10) 4.17 (10:10) 0 0 0 0 0
21-11-2020 19.5 (14:10) 7.3 (00:00) 13.4 7.22 (11:50) 4.72 (11:50) 0 0 0 0 0
20-11-2020 20 (13:50) 7.6 (00:00) 13.8 8.33 (13:10) 4.72 (13:10) 0 0 0 0 0
19-11-2020 21.3 (15:50) 11 (00:00) 16.1 7.78 (12:20) 5 (12:10) 0 0 0 0 0
18-11-2020 21.9 (13:20) 12.7 (00:00) 17.3 3.89 (12:30) 2.22 (01:30) 0 0 0 0 0
17-11-2020 22.6 (15:10) 14.5 (00:00) 18.6 7.78 (15:10) 3.89 (15:20) 0 0 0 0 0
16-11-2020 25.3 (10:40) 15.7 (00:00) 20.5 12.22 (11:50) 8.33 (12:50) 0 0 0 0 0
15-11-2020 26.3 (12:50) 12.7 (00:00) 19.5 5.56 (12:10) 3.33 (12:10) 0 0 0 0 0
14-11-2020 20.9 (12:00) 13.9 (00:00) 17.4 5.83 (00:10) 3.06 (00:10) 0 0 0 0 0
13-11-2020 20.3 (12:40) 14.6 (00:00) 17.4 10.83 (10:40) 6.39 (10:00) 0 0 0 0 0
12-11-2020 21.3 (12:00) 9.5 (00:00) 15.4 5 (13:10) 3.06 (13:30) 0.2 0.2 0 0 0
11-11-2020 21.2 (13:00) 11 (00:00) 16.1 5.83 (09:20) 3.33 (11:00) 0 0 0 0 0
26-10-2020 22.8 (14:50) 13.8 (00:00) 18.3 19.17 (10:00) 11.11 (10:00) 0 0 0 0 0
09-11-2020 22.5 (16:10) 9.8 (00:00) 16.2 3.89 (13:50) 2.78 (23:50) 0.2 0.2 0 0 0
08-11-2020 22.3 (11:20) 9.5 (00:00) 15.9 5 (14:10) 3.61 (14:20) 0 0 0 0 0
07-11-2020 23.9 (14:50) 13.3 (00:00) 18.6 10.56 (13:10) 6.39 (15:00) 14.8 2.8 12 0 0
06-11-2020 23.6 (15:50) 18.1 (00:00) 20.9 7.78 (23:20) 4.17 (11:40) 0 0 0 0 0
05-11-2020 -- (--) -- (--) -- -- (--) -- (--) -- -- -- 0 0
03-11-2020 23 (13:50) 12.4 (00:00) 17.7 10.28 (13:00) 6.11 (12:50) 0 0 0 0 0
02-11-2020 24.6 (13:40) 10.1 (00:00) 17.4 7.78 (16:30) 5 (17:00) 0.2 0.2 0 0 0
01-11-2020 25.4 (14:00) 10.1 (00:00) 17.8 6.94 (17:40) 3.61 (20:20) 0 0 0 0 0
31-10-2020 25.1 (13:50) 9.8 (00:00) 17.5 7.78 (15:50) 4.17 (14:50) 0 0 0 0 0
30-10-2020 26.8 (15:20) 10.1 (00:00) 18.4 5.28 (17:30) 3.06 (03:50) 0 0 0 0 0
29-10-2020 23.8 (11:50) 11.1 (00:00) 17.4 6.39 (10:40) 3.89 (12:10) 0 0 0 0 0
28-10-2020 24.5 (11:20) 9.5 (00:00) 17 6.11 (11:40) 3.61 (15:50) 0 0 0 0 0
27-10-2020 24.2 (14:00) 9.9 (00:00) 17.1 11.11 (11:20) 6.39 (00:10) 0 0 0 0 0

Gráficas

Temp. máximas Temp. mínimas Temp. medias Precipitaciones Rachas de viento máximas Velocidades máximas media en intervalos de 10 minutos

Datos horarios

Fecha y hora oficial Temperatura (ºC) Velocidad del viento (km/h) Dirección del viento Racha (km/h) Dirección de racha Precipitación (mm) Presión (hPa) Tendencia (hPa) Humedad (%)